Time;durP1;ratioP1;P1;durP2;ratioP2;P2;SDS_P1;SDS_P2;PMS_P1;PMS_P2;Temp;Humidity;BMP_temperature;BMP_pressure;BME280_temperature;BME280_humidity;BME280_pressure;Samples;Min_cycle;Max_cycle;Signal;HPM_P1;HPM_P2
2023/10/21 00:01:39;;;;;;;9.30;3.78;;;12.10;93.60;;;;;;5027435;28;20496;-76
2023/10/21 00:04:06;;;;;;;8.27;4.07;;;12.10;93.60;;;;;;5009427;28;20144;-76
2023/10/21 00:06:35;;;;;;;8.43;3.65;;;12.10;93.60;;;;;;5009559;28;20082;-76
2023/10/21 00:09:02;;;;;;;8.83;3.53;;;12.10;93.60;;;;;;5022747;28;20042;-75
2023/10/21 00:11:29;;;;;;;7.25;3.42;;;12.10;93.70;;;;;;5027112;28;20329;-76
2023/10/21 00:13:57;;;;;;;7.00;3.45;;;12.10;93.70;;;;;;5026554;28;20508;-76
2023/10/21 00:16:24;;;;;;;6.90;3.60;;;12.10;93.60;;;;;;5027053;28;20073;-76
2023/10/21 00:18:51;;;;;;;7.47;3.17;;;12.10;93.70;;;;;;5043153;28;20132;-76
2023/10/21 00:21:18;;;;;;;5.77;3.10;;;12.10;93.70;;;;;;5010313;28;20049;-76
2023/10/21 00:23:46;;;;;;;7.10;3.40;;;12.20;93.60;;;;;;5013606;28;20270;-76
2023/10/21 00:26:13;;;;;;;6.55;3.17;;;12.10;93.60;;;;;;5026702;28;20551;-76
2023/10/21 00:28:45;;;;;;;7.47;3.40;;;12.20;93.50;;;;;;5013536;28;20050;-76
2023/10/21 00:31:12;;;;;;;6.72;3.45;;;12.20;93.50;;;;;;4990635;28;20081;-76
2023/10/21 00:33:38;;;;;;;9.57;3.43;;;12.10;93.50;;;;;;4996211;28;20046;-76
2023/10/21 00:36:06;;;;;;;6.60;3.25;;;12.10;93.50;;;;;;5026606;28;20308;-76
2023/10/21 00:38:33;;;;;;;8.15;3.88;;;12.10;93.40;;;;;;5042865;28;20140;-76
2023/10/21 00:41:03;;;;;;;6.30;3.22;;;12.10;93.40;;;;;;5042906;28;20141;-76
2023/10/21 00:43:37;;;;;;;7.47;3.55;;;12.10;93.40;;;;;;5008873;28;20053;-76
2023/10/21 00:46:10;;;;;;;6.43;3.43;;;12.10;93.40;;;;;;5010286;28;20042;-76
2023/10/21 00:48:38;;;;;;;7.90;3.60;;;12.10;93.30;;;;;;5009613;28;20261;-76
2023/10/21 00:51:04;;;;;;;8.48;3.53;;;12.10;93.30;;;;;;5026542;28;20102;-76
2023/10/21 00:53:32;;;;;;;9.18;3.83;;;12.10;93.30;;;;;;5009698;28;20568;-76
2023/10/21 00:55:59;;;;;;;8.98;3.90;;;12.10;93.20;;;;;;5028143;28;20049;-76
2023/10/21 00:58:30;;;;;;;8.33;4.10;;;12.00;93.20;;;;;;5027464;28;20520;-76
2023/10/21 01:00:57;;;;;;;11.40;4.57;;;12.00;93.20;;;;;;5008368;28;20342;-76
2023/10/21 01:03:26;;;;;;;9.32;4.25;;;12.00;93.10;;;;;;5026280;28;20144;-76
2023/10/21 01:05:53;;;;;;;7.68;4.20;;;12.00;93.10;;;;;;5010223;28;20647;-76
2023/10/21 01:08:20;;;;;;;9.52;4.78;;;12.00;93.10;;;;;;5002408;28;20055;-76
2023/10/21 01:10:47;;;;;;;11.23;5.53;;;12.00;93.00;;;;;;4999027;28;20134;-76
2023/10/21 01:13:14;;;;;;;10.13;4.97;;;12.00;93.00;;;;;;5006689;28;20389;-76
2023/10/21 01:15:42;;;;;;;10.52;5.32;;;11.90;93.00;;;;;;5005547;28;20152;-76
2023/10/21 01:18:10;;;;;;;10.45;5.40;;;11.90;92.90;;;;;;5025178;28;20085;-76
2023/10/21 01:20:39;;;;;;;11.32;6.20;;;11.90;92.90;;;;;;5009756;28;20069;-76
2023/10/21 01:23:07;;;;;;;10.77;5.80;;;11.90;92.90;;;;;;5023203;28;20050;-76
2023/10/21 01:25:36;;;;;;;13.18;6.22;;;11.90;92.80;;;;;;5009231;28;20257;-76
2023/10/21 01:28:03;;;;;;;13.05;6.07;;;11.90;92.80;;;;;;5027711;28;20156;-76
2023/10/21 01:30:30;;;;;;;12.35;6.13;;;11.90;92.70;;;;;;5025459;28;20050;-76
2023/10/21 01:32:57;;;;;;;14.23;6.05;;;11.90;92.70;;;;;;5025947;28;20491;-76
2023/10/21 01:35:24;;;;;;;12.03;5.87;;;11.90;92.70;;;;;;5009622;28;20054;-76
2023/10/21 01:37:51;;;;;;;12.68;6.50;;;11.90;92.70;;;;;;5009236;28;20348;-76
2023/10/21 01:40:18;;;;;;;10.93;6.15;;;11.90;92.70;;;;;;5042347;28;20069;-76
2023/10/21 01:42:46;;;;;;;15.65;6.82;;;11.90;92.60;;;;;;5008793;28;20579;-76
2023/10/21 01:45:13;;;;;;;12.48;6.05;;;11.90;92.60;;;;;;4991094;28;20138;-76
2023/10/21 01:47:40;;;;;;;12.40;5.90;;;11.90;92.60;;;;;;5026200;28;20226;-76
2023/10/21 01:50:08;;;;;;;12.65;6.35;;;11.80;92.50;;;;;;5026066;28;20389;-76
2023/10/21 01:52:36;;;;;;;14.27;6.78;;;11.90;92.50;;;;;;5026382;28;20487;-76
2023/10/21 01:55:04;;;;;;;11.93;6.18;;;11.80;92.50;;;;;;5025079;28;20060;-76
2023/10/21 01:57:31;;;;;;;10.85;6.10;;;11.80;92.50;;;;;;5009933;28;20052;-76
2023/10/21 02:00:04;;;;;;;13.87;6.33;;;11.80;92.50;;;;;;5005770;28;20050;-76
2023/10/21 02:02:39;;;;;;;12.15;5.90;;;11.80;92.50;;;;;;5007839;28;20251;-76
2023/10/21 02:05:07;;;;;;;13.65;6.10;;;11.80;92.40;;;;;;5010549;28;20051;-76
2023/10/21 02:07:35;;;;;;;10.50;6.10;;;11.70;92.30;;;;;;4989514;28;20105;-76
2023/10/21 02:10:03;;;;;;;12.50;5.72;;;11.70;92.30;;;;;;4989904;28;20061;-76
2023/10/21 02:12:30;;;;;;;11.53;5.70;;;11.70;92.30;;;;;;5020343;28;20042;-76
2023/10/21 02:14:57;;;;;;;12.07;6.55;;;11.70;92.20;;;;;;5012337;28;20819;-76
2023/10/21 02:17:25;;;;;;;12.40;5.90;;;11.70;92.20;;;;;;5028390;28;20573;-76
2023/10/21 02:19:56;;;;;;;10.25;6.03;;;11.70;92.20;;;;;;5027060;28;20054;-76
2023/10/21 02:22:23;;;;;;;11.00;5.95;;;11.70;92.20;;;;;;5028749;28;20054;-76
2023/10/21 02:24:50;;;;;;;10.40;5.50;;;11.70;92.10;;;;;;5010688;28;20049;-76
2023/10/21 02:27:17;;;;;;;11.57;5.57;;;11.70;92.00;;;;;;5017159;28;20796;-76
2023/10/21 02:29:44;;;;;;;10.50;5.22;;;11.70;92.00;;;;;;5015398;28;20061;-76
2023/10/21 02:32:11;;;;;;;11.65;5.70;;;11.70;91.90;;;;;;5027267;28;20046;-76
2023/10/21 02:34:39;;;;;;;10.63;5.50;;;11.70;91.80;;;;;;5028865;28;20042;-76
2023/10/21 02:37:06;;;;;;;10.93;5.20;;;11.70;91.70;;;;;;5011801;28;20097;-76
2023/10/21 02:39:33;;;;;;;9.98;5.32;;;11.70;91.60;;;;;;5011763;28;20272;-76
2023/10/21 02:42:01;;;;;;;10.07;5.20;;;11.70;91.60;;;;;;5028556;28;20050;-76
2023/10/21 02:44:28;;;;;;;11.90;5.28;;;11.70;91.50;;;;;;5030381;28;20108;-76
2023/10/21 02:46:55;;;;;;;8.80;5.00;;;11.70;91.50;;;;;;5009644;28;20128;-76
2023/10/21 02:49:22;;;;;;;10.93;5.03;;;11.70;91.40;;;;;;5011991;28;20062;-76
2023/10/21 02:51:50;;;;;;;8.05;4.72;;;11.70;91.30;;;;;;5011872;28;20268;-76
2023/10/21 02:54:17;;;;;;;10.13;4.70;;;11.70;91.20;;;;;;5011792;28;20579;-76
2023/10/21 02:56:44;;;;;;;8.68;4.63;;;11.70;91.20;;;;;;5030008;28;20089;-76
2023/10/21 02:59:11;;;;;;;9.13;4.90;;;11.70;91.20;;;;;;5011533;28;20542;-76
2023/10/21 03:01:38;;;;;;;9.57;5.00;;;11.70;91.20;;;;;;5026888;28;20512;-76
2023/10/21 03:04:05;;;;;;;10.60;4.80;;;11.70;91.10;;;;;;5008879;28;20396;-76
2023/10/21 03:06:32;;;;;;;10.15;4.63;;;11.60;91.10;;;;;;5028265;28;20050;-76
2023/10/21 03:09:00;;;;;;;9.18;4.35;;;11.60;91.10;;;;;;5011581;28;20130;-76
2023/10/21 03:11:28;;;;;;;9.85;4.40;;;11.60;91.00;;;;;;5011028;28;20054;-76
2023/10/21 03:13:54;;;;;;;9.43;4.50;;;11.60;91.00;;;;;;5011113;28;20048;-76
2023/10/21 03:16:21;;;;;;;7.80;4.22;;;11.60;90.90;;;;;;5011290;28;20257;-76
2023/10/21 03:18:48;;;;;;;8.65;4.65;;;11.60;90.80;;;;;;5011575;28;20052;-76
2023/10/21 03:21:15;;;;;;;8.57;4.28;;;11.50;90.70;;;;;;5027812;28;20441;-76
2023/10/21 03:23:42;;;;;;;9.45;4.32;;;11.50;90.60;;;;;;5028012;28;20070;-76
2023/10/21 03:26:11;;;;;;;9.57;4.73;;;11.50;90.50;;;;;;5008340;28;20086;-76
2023/10/21 03:28:40;;;;;;;9.20;4.90;;;11.50;90.40;;;;;;5024466;28;20356;-76
2023/10/21 03:31:07;;;;;;;9.20;4.32;;;11.50;90.40;;;;;;5029144;28;20140;-76
2023/10/21 03:33:34;;;;;;;9.85;4.75;;;11.50;90.40;;;;;;5027870;28;20492;-76
2023/10/21 03:36:02;;;;;;;9.50;4.68;;;11.40;90.30;;;;;;5011826;28;20046;-76
2023/10/21 03:38:30;;;;;;;8.40;4.43;;;11.40;90.30;;;;;;5027968;28;20081;-76
2023/10/21 03:40:57;;;;;;;10.45;5.07;;;11.40;90.20;;;;;;5026352;28;20755;-76
2023/10/21 03:43:27;;;;;;;10.40;5.20;;;11.40;90.10;;;;;;5011377;28;20669;-76
2023/10/21 03:45:55;;;;;;;10.57;5.28;;;11.30;90.10;;;;;;5027807;28;20054;-76
2023/10/21 03:48:22;;;;;;;13.30;5.70;;;11.30;90.10;;;;;;5027662;28;20041;-76
2023/10/21 03:50:49;;;;;;;11.50;5.93;;;11.30;90.10;;;;;;5044068;28;20402;-76
2023/10/21 03:53:16;;;;;;;11.18;5.32;;;11.30;90.10;;;;;;5011394;28;20308;-76
2023/10/21 03:55:44;;;;;;;10.35;5.20;;;11.30;90.00;;;;;;5019299;28;20144;-76
2023/10/21 03:58:13;;;;;;;11.73;5.47;;;11.30;90.00;;;;;;5007079;28;20054;-76
2023/10/21 04:00:41;;;;;;;8.63;4.63;;;11.30;90.00;;;;;;5007973;28;20061;-76
2023/10/21 04:03:08;;;;;;;11.63;6.00;;;11.30;90.00;;;;;;5008845;28;20066;-76
2023/10/21 04:05:35;;;;;;;10.60;5.40;;;11.30;90.00;;;;;;4995878;28;20250;-76
2023/10/21 04:08:05;;;;;;;11.48;5.47;;;11.30;90.00;;;;;;5010620;28;20053;-76
2023/10/21 04:10:32;;;;;;;11.45;5.15;;;11.30;89.90;;;;;;5042539;28;20050;-76
2023/10/21 04:13:01;;;;;;;9.57;5.40;;;11.30;89.90;;;;;;5025636;28;20077;-76
2023/10/21 04:15:28;;;;;;;11.40;5.50;;;11.30;89.90;;;;;;5024796;28;20046;-76
2023/10/21 04:17:56;;;;;;;10.38;5.18;;;11.30;89.70;;;;;;5026965;28;20766;-76
2023/10/21 04:20:23;;;;;;;11.18;5.65;;;11.30;89.70;;;;;;5025182;28;20057;-75
2023/10/21 04:22:50;;;;;;;10.10;5.88;;;11.20;89.70;;;;;;5025682;28;20483;-76
2023/10/21 04:25:17;;;;;;;11.15;5.68;;;11.20;89.70;;;;;;5004315;28;20420;-76
2023/10/21 04:27:44;;;;;;;10.57;5.53;;;11.20;89.70;;;;;;4990835;28;20051;-76
2023/10/21 04:30:12;;;;;;;9.73;5.30;;;11.10;89.70;;;;;;5007316;28;20722;-76
2023/10/21 04:32:40;;;;;;;9.98;5.18;;;11.10;89.70;;;;;;4994584;28;20436;-76
2023/10/21 04:35:09;;;;;;;9.00;5.25;;;11.10;89.60;;;;;;5026005;28;20228;-76
2023/10/21 04:37:36;;;;;;;10.77;5.53;;;11.10;89.70;;;;;;5027036;28;20054;-76
2023/10/21 04:40:04;;;;;;;9.90;4.73;;;11.10;89.70;;;;;;5014946;28;20133;-76
2023/10/21 04:42:30;;;;;;;9.55;4.88;;;11.10;89.70;;;;;;5026010;28;20262;-76
2023/10/21 04:44:58;;;;;;;11.45;5.57;;;11.10;89.70;;;;;;5019158;28;20042;-76
2023/10/21 04:47:25;;;;;;;10.18;5.22;;;11.10;89.70;;;;;;5028151;28;20057;-76
2023/10/21 04:49:52;;;;;;;10.38;5.50;;;11.10;89.70;;;;;;5022406;28;20100;-76
2023/10/21 04:52:20;;;;;;;10.57;5.27;;;11.10;89.80;;;;;;5006577;28;20108;-76
2023/10/21 04:54:47;;;;;;;10.73;5.47;;;11.10;89.70;;;;;;5006076;28;20262;-76
2023/10/21 04:57:16;;;;;;;10.82;5.40;;;11.10;89.70;;;;;;5006307;28;20499;-76
2023/10/21 04:59:44;;;;;;;10.48;5.32;;;11.10;89.80;;;;;;5011308;28;20589;-76
2023/10/21 05:02:11;;;;;;;10.52;5.03;;;11.10;89.80;;;;;;5022092;28;20345;-76
2023/10/21 05:04:39;;;;;;;9.67;5.27;;;11.10;89.80;;;;;;5027501;28;20274;-81
2023/10/21 05:07:06;;;;;;;11.52;5.85;;;11.10;89.70;;;;;;5022868;28;20388;-80
2023/10/21 05:09:34;;;;;;;9.98;5.35;;;11.10;89.70;;;;;;5022588;28;20085;-80
2023/10/21 05:12:02;;;;;;;9.75;5.35;;;11.10;89.70;;;;;;5024417;28;20901;-84
2023/10/21 05:14:29;;;;;;;9.70;5.05;;;11.10;89.70;;;;;;5007528;28;20595;-83
2023/10/21 05:16:55;;;;;;;8.87;4.40;;;11.10;89.70;;;;;;5024520;28;20049;-82
2023/10/21 05:19:23;;;;;;;9.07;4.78;;;11.10;89.70;;;;;;5031273;28;20325;-77
2023/10/21 05:21:50;;;;;;;9.65;5.00;;;11.10;89.70;;;;;;5017171;28;20120;-81
2023/10/21 05:24:17;;;;;;;10.00;4.70;;;11.10;89.70;;;;;;5024324;28;20125;-85
2023/10/21 05:26:45;;;;;;;8.48;4.85;;;11.10;89.70;;;;;;5017060;28;20850;-80
2023/10/21 05:29:12;;;;;;;10.73;5.00;;;11.10;89.80;;;;;;5017293;28;20056;-78
2023/10/21 05:31:42;;;;;;;11.18;5.18;;;11.10;89.80;;;;;;5013411;28;20258;-80
2023/10/21 05:34:08;;;;;;;11.35;4.68;;;11.10;89.90;;;;;;5030255;28;20085;-85
2023/10/21 05:36:35;;;;;;;9.85;4.88;;;11.10;89.90;;;;;;5021117;28;20161;-81
2023/10/21 05:39:04;;;;;;;8.98;4.80;;;11.10;90.00;;;;;;5031316;28;20048;-80
2023/10/21 05:41:30;;;;;;;10.77;5.50;;;11.10;90.00;;;;;;5014031;28;20058;-81
2023/10/21 05:43:59;;;;;;;8.80;4.95;;;11.10;90.00;;;;;;5016904;28;20266;-83
2023/10/21 05:46:26;;;;;;;10.55;5.45;;;11.10;90.00;;;;;;5024692;28;20057;-84
2023/10/21 05:48:53;;;;;;;8.65;5.00;;;11.10;90.00;;;;;;5025232;28;20058;-83
2023/10/21 05:51:19;;;;;;;10.00;5.03;;;11.20;90.10;;;;;;5034616;28;20065;-83
2023/10/21 05:53:47;;;;;;;9.20;4.77;;;11.20;90.10;;;;;;5012298;28;20489;-83
2023/10/21 05:56:16;;;;;;;10.38;5.50;;;11.20;90.30;;;;;;5012474;28;20293;-83
2023/10/21 05:58:43;;;;;;;9.30;4.95;;;11.20;90.30;;;;;;5009321;28;20054;-83
2023/10/21 06:01:15;;;;;;;8.63;4.40;;;11.20;90.30;;;;;;5028454;28;20512;-84
2023/10/21 06:03:42;;;;;;;8.73;5.05;;;11.30;90.30;;;;;;5029939;28;20750;-85
2023/10/21 06:06:09;;;;;;;9.97;5.03;;;11.30;90.40;;;;;;5018755;28;20436;-82
2023/10/21 06:08:36;;;;;;;9.70;4.60;;;11.30;90.40;;;;;;5012047;28;20272;-82
2023/10/21 06:11:03;;;;;;;9.88;4.85;;;11.30;90.50;;;;;;5028675;28;20346;-80
2023/10/21 06:13:30;;;;;;;9.90;4.85;;;11.30;90.60;;;;;;5027081;28;20042;-79
2023/10/21 06:15:57;;;;;;;10.35;4.93;;;11.30;90.60;;;;;;5029045;28;20137;-81
2023/10/21 06:18:25;;;;;;;10.50;5.07;;;11.30;90.60;;;;;;5028129;28;20050;-80
2023/10/21 06:20:53;;;;;;;8.80;4.82;;;11.30;90.60;;;;;;5026220;28;20876;-79
2023/10/21 06:23:21;;;;;;;11.05;4.60;;;11.40;90.70;;;;;;5027493;28;21070;-79
2023/10/21 06:25:48;;;;;;;8.75;4.88;;;11.40;90.70;;;;;;5027961;28;20058;-79
2023/10/21 06:28:15;;;;;;;9.98;5.05;;;11.40;90.80;;;;;;5027910;28;20060;-79
2023/10/21 06:30:42;;;;;;;8.30;4.63;;;11.40;90.80;;;;;;5010329;28;20060;-80
2023/10/21 06:33:10;;;;;;;9.52;4.75;;;11.40;90.80;;;;;;5035663;28;20294;-81
2023/10/21 06:35:39;;;;;;;7.30;4.47;;;11.40;90.90;;;;;;5026363;28;20046;-78
2023/10/21 06:38:08;;;;;;;10.40;5.15;;;11.40;90.90;;;;;;5009002;28;20054;-80
2023/10/21 06:40:35;;;;;;;8.00;4.45;;;11.40;90.90;;;;;;5026560;28;20052;-82
2023/10/21 06:43:02;;;;;;;9.70;4.80;;;11.50;91.00;;;;;;5025958;28;20908;-83
2023/10/21 06:45:30;;;;;;;9.20;5.07;;;11.50;91.00;;;;;;5012013;28;20759;-82
2023/10/21 06:47:57;;;;;;;8.88;4.88;;;11.50;91.10;;;;;;5029289;28;20053;-81
2023/10/21 06:50:24;;;;;;;10.13;5.07;;;11.50;91.10;;;;;;5012793;28;20050;-80
2023/10/21 06:52:53;;;;;;;10.40;5.47;;;11.50;91.20;;;;;;5015944;28;20054;-78
2023/10/21 06:55:21;;;;;;;10.03;4.63;;;11.50;91.20;;;;;;5018439;28;20058;-79
2023/10/21 06:57:48;;;;;;;10.93;5.40;;;11.60;91.30;;;;;;5011773;28;20253;-79
2023/10/21 07:00:16;;;;;;;11.07;5.80;;;11.70;91.30;;;;;;5028881;28;20046;-79
2023/10/21 07:02:43;;;;;;;9.77;5.10;;;11.70;91.40;;;;;;5027946;28;20054;-79
2023/10/21 07:05:10;;;;;;;12.07;5.13;;;11.70;91.50;;;;;;5012263;28;20496;-79
2023/10/21 07:07:40;;;;;;;9.57;4.90;;;11.70;91.50;;;;;;5044914;28;20056;-79
2023/10/21 07:10:09;;;;;;;9.93;5.25;;;11.80;91.60;;;;;;5011481;28;20257;-80
2023/10/21 07:12:38;;;;;;;9.88;5.13;;;11.80;91.60;;;;;;5024462;28;20118;-82
2023/10/21 07:15:07;;;;;;;10.30;5.63;;;11.90;91.60;;;;;;5012408;28;20169;-82
2023/10/21 07:17:35;;;;;;;10.30;5.53;;;11.90;91.90;;;;;;5012139;28;20152;-83
2023/10/21 07:20:04;;;;;;;10.20;4.73;;;11.90;91.90;;;;;;5011066;28;20057;-83
2023/10/21 07:22:36;;;;;;;11.73;5.32;;;12.00;92.00;;;;;;5010608;28;20289;-84
2023/10/21 07:25:03;;;;;;;10.73;5.38;;;12.00;92.00;;;;;;5027284;28;20061;-88
2023/10/21 07:27:32;;;;;;;10.45;5.30;;;12.10;92.10;;;;;;5029002;28;20128;-85
2023/10/21 07:29:59;;;;;;;14.02;6.35;;;12.10;92.10;;;;;;5026718;28;20077;-78
2023/10/21 07:32:26;;;;;;;11.70;6.33;;;12.10;92.10;;;;;;5028604;28;20160;-81
2023/10/21 07:34:54;;;;;;;10.63;5.80;;;12.20;92.20;;;;;;5028090;28;20284;-82
2023/10/21 07:37:21;;;;;;;12.27;5.68;;;12.20;92.30;;;;;;5026953;28;20045;-79
2023/10/21 07:39:48;;;;;;;11.15;5.72;;;12.20;92.40;;;;;;5028563;28;20567;-79
2023/10/21 07:42:15;;;;;;;12.70;6.47;;;12.30;92.50;;;;;;5009986;28;20050;-79
2023/10/21 07:44:47;;;;;;;11.27;6.17;;;12.30;92.50;;;;;;5026794;28;20046;-79
2023/10/21 07:47:14;;;;;;;11.02;5.93;;;12.30;92.60;;;;;;5010263;28;20316;-80
2023/10/21 07:49:41;;;;;;;12.20;5.80;;;12.40;92.60;;;;;;5044583;28;20050;-80
2023/10/21 07:52:09;;;;;;;11.32;5.60;;;12.50;92.70;;;;;;5027942;28;20058;-79
2023/10/21 07:54:37;;;;;;;13.20;6.70;;;12.50;92.70;;;;;;5024918;28;20095;-80
2023/10/21 07:57:05;;;;;;;11.53;5.90;;;12.50;92.90;;;;;;5025694;28;20045;-80
2023/10/21 07:59:34;;;;;;;13.40;6.18;;;12.50;92.90;;;;;;5027801;28;20261;-81
2023/10/21 08:02:04;;;;;;;10.90;6.10;;;12.50;92.90;;;;;;5026788;28;20144;-80
2023/10/21 08:04:32;;;;;;;11.85;5.75;;;12.70;93.00;;;;;;5025616;28;20065;-79
2023/10/21 08:06:59;;;;;;;12.45;5.63;;;12.70;93.10;;;;;;5026584;28;20053;-80
2023/10/21 08:09:26;;;;;;;9.23;5.13;;;12.70;93.10;;;;;;5026907;28;20050;-79
2023/10/21 08:11:54;;;;;;;11.07;5.68;;;12.70;93.10;;;;;;5011466;28;20792;-79
2023/10/21 08:14:22;;;;;;;10.82;5.40;;;12.80;93.10;;;;;;5027312;28;20050;-80
2023/10/21 08:16:49;;;;;;;10.65;5.40;;;12.80;93.10;;;;;;5028063;28;20125;-79
2023/10/21 08:19:18;;;;;;;11.50;5.38;;;12.90;93.20;;;;;;5011568;28;20056;-80
2023/10/21 08:21:45;;;;;;;10.17;4.67;;;12.90;93.10;;;;;;5027903;28;20054;-80
2023/10/21 08:24:12;;;;;;;10.07;3.67;;;13.00;93.10;;;;;;5026634;28;20281;-80
2023/10/21 08:26:39;;;;;;;10.25;4.78;;;13.00;93.20;;;;;;5027357;28;20112;-80
2023/10/21 08:29:06;;;;;;;10.90;4.82;;;13.10;93.20;;;;;;5021842;28;20435;-79
2023/10/21 08:31:34;;;;;;;9.40;4.72;;;13.10;93.20;;;;;;5026286;28;20060;-81
2023/10/21 08:34:01;;;;;;;11.27;4.63;;;13.10;93.20;;;;;;5010972;28;20101;-81
2023/10/21 08:36:29;;;;;;;10.65;4.72;;;13.10;93.10;;;;;;5010880;28;20364;-81
2023/10/21 08:38:57;;;;;;;9.93;4.45;;;13.20;93.10;;;;;;5010509;28;20050;-81
2023/10/21 08:41:24;;;;;;;9.25;4.32;;;13.30;93.20;;;;;;5025391;28;20088;-80
2023/10/21 08:43:52;;;;;;;9.60;4.03;;;13.30;93.20;;;;;;5027202;28;20164;-81
2023/10/21 08:46:20;;;;;;;9.97;4.23;;;13.30;93.20;;;;;;5026579;28;20060;-82
2023/10/21 08:48:49;;;;;;;9.50;4.05;;;13.40;93.20;;;;;;5025849;28;20285;-82
2023/10/21 08:51:21;;;;;;;10.32;4.78;;;13.50;93.20;;;;;;5017945;28;20112;-81
2023/10/21 08:53:57;;;;;;;9.93;4.05;;;13.50;93.10;;;;;;5025865;28;20056;-81
2023/10/21 08:56:28;;;;;;;8.73;3.80;;;13.60;93.00;;;;;;5023180;28;20050;-82
2023/10/21 08:58:56;;;;;;;9.00;4.03;;;13.60;93.00;;;;;;5000020;28;20057;-80
2023/10/21 09:01:31;;;;;;;7.13;3.40;;;13.70;92.90;;;;;;5025979;28;20246;-80
2023/10/21 09:03:59;;;;;;;8.85;3.85;;;13.70;92.90;;;;;;5027020;28;20058;-79
2023/10/21 09:06:35;;;;;;;9.32;4.00;;;13.80;92.70;;;;;;5028147;28;20081;-80
2023/10/21 09:09:04;;;;;;;8.68;3.60;;;13.90;92.60;;;;;;5024251;28;20563;-79
2023/10/21 09:11:31;;;;;;;8.43;3.60;;;13.90;92.60;;;;;;5043139;28;20054;-80
2023/10/21 09:13:59;;;;;;;6.57;3.58;;;13.90;92.50;;;;;;5027288;28;20321;-81
2023/10/21 09:16:31;;;;;;;6.97;3.35;;;14.00;92.40;;;;;;5009987;28;20049;-79
2023/10/21 09:19:00;;;;;;;9.25;3.50;;;14.00;92.20;;;;;;5025406;28;20049;-80
2023/10/21 09:21:36;;;;;;;7.53;3.30;;;14.00;92.00;;;;;;5025221;28;20527;-80
2023/10/21 09:24:06;;;;;;;6.13;2.70;;;14.10;91.70;;;;;;5042111;28;20057;-79
2023/10/21 09:26:34;;;;;;;7.10;3.25;;;14.10;91.60;;;;;;5027375;28;20376;-79
2023/10/21 09:29:06;;;;;;;8.80;3.38;;;14.10;91.50;;;;;;5025896;28;20104;-82
2023/10/21 09:31:48;;;;;;;7.65;3.28;;;14.10;91.40;;;;;;5026275;28;20057;-80
2023/10/21 09:34:27;;;;;;;6.85;3.03;;;14.20;91.40;;;;;;5025053;28;20050;-80
2023/10/21 09:36:56;;;;;;;7.07;2.80;;;14.20;91.30;;;;;;5006925;28;20050;-81
2023/10/21 09:39:27;;;;;;;6.25;2.75;;;14.20;91.20;;;;;;4989852;28;20268;-81
2023/10/21 09:41:54;;;;;;;8.27;3.28;;;14.20;91.00;;;;;;5007805;28;21036;-79
2023/10/21 09:44:21;;;;;;;6.25;2.63;;;14.20;90.90;;;;;;5025557;28;20956;-81
2023/10/21 09:46:49;;;;;;;5.43;2.45;;;14.20;90.80;;;;;;5025170;28;20136;-83
2023/10/21 09:49:17;;;;;;;5.90;2.37;;;14.20;90.70;;;;;;5041773;28;20057;-82
2023/10/21 09:51:54;;;;;;;4.78;2.10;;;14.20;90.60;;;;;;5020901;28;20289;-80
2023/10/21 09:54:32;;;;;;;5.38;1.92;;;14.30;90.50;;;;;;5023720;28;20061;-80
2023/10/21 09:57:02;;;;;;;6.13;2.10;;;14.30;90.20;;;;;;5008246;28;20046;-79
2023/10/21 09:59:31;;;;;;;3.85;1.70;;;14.20;90.30;;;;;;5021216;28;20153;-79
2023/10/21 10:02:00;;;;;;;3.70;1.60;;;14.30;90.30;;;;;;5026201;28;20601;-79
2023/10/21 10:04:32;;;;;;;4.55;1.60;;;14.20;90.20;;;;;;5024894;28;20946;-79
2023/10/21 10:07:05;;;;;;;3.28;1.50;;;14.20;90.20;;;;;;5022288;28;20057;-79
2023/10/21 10:09:34;;;;;;;3.58;1.40;;;14.20;90.30;;;;;;5026079;28;20050;-82
2023/10/21 10:12:08;;;;;;;3.47;1.30;;;14.20;90.30;;;;;;5010774;28;20073;-87
2023/10/21 10:14:36;;;;;;;3.37;1.50;;;14.30;90.50;;;;;;5026678;28;20136;-83
2023/10/21 10:17:05;;;;;;;3.53;1.20;;;14.30;90.60;;;;;;5028870;28;20257;-81
2023/10/21 10:19:40;;;;;;;4.05;1.27;;;14.20;90.60;;;;;;5011765;28;21024;-82
2023/10/21 10:22:21;;;;;;;2.88;0.85;;;14.20;90.70;;;;;;5029063;28;20054;-86
2023/10/21 10:24:55;;;;;;;2.65;0.80;;;14.20;90.60;;;;;;5011910;28;20054;-86
2023/10/21 10:27:36;;;;;;;3.10;0.87;;;14.20;90.40;;;;;;5012542;28;20485;-86
2023/10/21 10:30:09;;;;;;;5.20;1.42;;;14.20;90.30;;;;;;5010574;28;20269;-89
2023/10/21 10:32:43;;;;;;;3.47;0.93;;;14.20;90.00;;;;;;5016687;28;20092;-88
2023/10/21 10:35:29;;;;;;;2.92;0.80;;;14.20;89.70;;;;;;5016900;28;20085;-90
2023/10/21 10:37:57;;;;;;;3.05;0.60;;;14.30;88.40;;;;;;5017288;28;20128;-90
2023/10/21 10:40:34;;;;;;;2.93;0.77;;;14.20;88.00;;;;;;5014836;28;20400;-89
2023/10/21 10:43:04;;;;;;;2.63;0.63;;;14.20;87.70;;;;;;5000992;28;20281;-82
2023/10/21 10:45:33;;;;;;;3.97;0.82;;;14.20;87.20;;;;;;5022502;28;20054;-87
2023/10/21 10:48:04;;;;;;;2.90;0.60;;;14.20;87.00;;;;;;5016704;28;20049;-89
2023/10/21 10:50:31;;;;;;;2.97;0.73;;;14.20;87.10;;;;;;5015134;28;20853;-83
2023/10/21 10:52:59;;;;;;;3.07;0.60;;;14.20;87.40;;;;;;5013168;28;20054;-81
2023/10/21 10:55:26;;;;;;;3.60;0.82;;;14.20;87.20;;;;;;5030668;28;20292;-84
2023/10/21 10:57:54;;;;;;;2.22;0.52;;;14.20;86.70;;;;;;5029544;28;20054;-81
2023/10/21 11:00:22;;;;;;;3.45;0.60;;;14.20;85.80;;;;;;5028551;28;20554;-86
2023/10/21 11:02:50;;;;;;;2.67;0.50;;;14.20;85.70;;;;;;5019391;28;20792;-91
2023/10/21 11:05:21;;;;;;;3.20;0.60;;;14.30;85.00;;;;;;5017323;28;20060;-88
2023/10/21 11:07:50;;;;;;;3.45;0.60;;;14.30;84.80;;;;;;5013348;28;20863;-87
2023/10/21 11:10:21;;;;;;;2.40;0.70;;;14.20;84.80;;;;;;5015296;28;20077;-87
2023/10/21 11:12:49;;;;;;;3.05;0.50;;;14.20;84.20;;;;;;5035037;28;20049;-91
2023/10/21 11:15:24;;;;;;;3.88;0.60;;;14.20;84.50;;;;;;5020269;28;20108;-92
2023/10/21 11:17:56;;;;;;;2.93;0.77;;;14.20;84.50;;;;;;5018701;28;20057;-91
2023/10/21 11:20:26;;;;;;;3.20;0.60;;;14.20;84.10;;;;;;5016880;28;20293;-86
2023/10/21 11:22:54;;;;;;;5.28;0.75;;;14.10;84.40;;;;;;5013437;28;20137;-87
2023/10/21 11:25:21;;;;;;;4.45;0.70;;;14.20;83.90;;;;;;5011886;28;20049;-86
2023/10/21 11:27:49;;;;;;;3.47;0.60;;;14.20;83.70;;;;;;5029825;28;20137;-87
2023/10/21 11:30:16;;;;;;;3.00;0.50;;;14.20;83.50;;;;;;5018760;28;20518;-88
2023/10/21 11:32:45;;;;;;;2.92;0.60;;;14.20;83.50;;;;;;5011468;28;20249;-84
2023/10/21 11:35:14;;;;;;;3.78;0.50;;;14.20;83.10;;;;;;5011757;28;20137;-83
2023/10/21 11:37:41;;;;;;;3.55;0.43;;;14.20;82.90;;;;;;5012357;28;20054;-83
2023/10/21 11:40:11;;;;;;;2.50;0.50;;;14.20;83.10;;;;;;5006544;28;20061;-84
2023/10/21 11:42:38;;;;;;;2.77;0.50;;;14.20;82.90;;;;;;4993710;28;20047;-82
2023/10/21 11:45:09;;;;;;;3.35;0.43;;;14.20;82.40;;;;;;4998917;28;20376;-85
2023/10/21 11:47:38;;;;;;;2.58;0.40;;;14.20;82.40;;;;;;5006385;28;20046;-83
2023/10/21 11:50:10;;;;;;;3.05;0.60;;;14.20;82.00;;;;;;5028670;28;20120;-83
2023/10/21 11:52:38;;;;;;;4.28;0.52;;;14.20;81.80;;;;;;5009697;28;20058;-82
2023/10/21 11:55:33;;;;;;;2.10;0.43;;;14.10;81.70;;;;;;5028591;28;20054;-83
2023/10/21 12:31:55;;;;;;;4.32;0.98;;;14.40;81.00;;;;;;5028264;28;20172;-85
2023/10/21 12:34:51;;;;;;;5.65;0.75;;;14.40;80.90;;;;;;5022417;28;20998;-84
2023/10/21 12:37:28;;;;;;;4.60;0.70;;;14.50;80.20;;;;;;5021451;28;20050;-84
2023/10/21 12:39:57;;;;;;;2.35;0.52;;;14.50;80.40;;;;;;5025585;28;20288;-86
2023/10/21 12:42:29;;;;;;;4.65;0.70;;;14.50;80.20;;;;;;5008843;28;20065;-82
2023/10/21 12:44:57;;;;;;;3.22;0.68;;;14.50;79.70;;;;;;5008442;28;20059;-83
2023/10/21 12:47:25;;;;;;;4.25;0.70;;;14.50;79.40;;;;;;5069311;22;20024;-81
2023/10/21 12:49:55;;;;;;;4.03;0.60;;;14.60;78.30;;;;;;4997236;28;20064;-82
2023/10/21 12:52:22;;;;;;;2.60;0.65;;;14.50;79.10;;;;;;4988408;28;20291;-84
2023/10/21 12:54:50;;;;;;;3.88;0.77;;;14.60;78.90;;;;;;4998426;28;20565;-84
2023/10/21 12:57:19;;;;;;;3.30;0.70;;;14.50;79.10;;;;;;4985322;28;20054;-82
2023/10/21 12:59:47;;;;;;;4.65;0.90;;;14.60;78.80;;;;;;4990183;28;20054;-86
2023/10/21 13:02:14;;;;;;;3.73;0.80;;;14.60;78.60;;;;;;4973760;28;20050;-88
2023/10/21 13:05:00;;;;;;;4.38;0.60;;;14.60;78.70;;;;;;4972558;28;20273;-87
2023/10/21 13:07:28;;;;;;;3.42;0.65;;;14.60;78.40;;;;;;5010819;28;20042;-87
2023/10/21 13:09:56;;;;;;;3.97;0.52;;;14.60;78.00;;;;;;4976667;28;20051;-87
2023/10/21 13:12:24;;;;;;;4.00;0.60;;;14.60;77.70;;;;;;4972137;28;20523;-84
2023/10/21 13:14:52;;;;;;;3.77;0.80;;;14.60;77.80;;;;;;4989856;28;20061;-84
2023/10/21 13:17:19;;;;;;;4.05;0.73;;;14.70;77.00;;;;;;5002708;28;20262;-84
2023/10/21 13:19:46;;;;;;;2.70;0.50;;;14.70;77.60;;;;;;4987852;28;20058;-84
2023/10/21 13:22:13;;;;;;;4.28;0.75;;;14.80;77.20;;;;;;4974304;28;20061;-83
2023/10/21 13:24:40;;;;;;;4.40;0.88;;;14.80;76.70;;;;;;4999777;28;20051;-84